Linda Moran — WDE4187 — position and weather

sailwx.info

Track history (hours):
 
Tides and Currents Weather Stations Pressure Air Temp Water Temp Dewpoint Dewpoint Depression Visibility Wind Speed Wind Dir Waves Ship Positions

Linda Moran

Owner: MORAN TOWING CORP., NEW CANAAN, CT. More information available from US FCC via Universal Licensing System and Coast Guard Vessel Documentation Center.

Last reported at 2015-Aug-03 08:33 UTC. Time now 2015-Aug-03 08:43 UTC.
Position N 38°32' W 074°41'.

Length 156 m; draft 8.2 m.

Type: Towing. MMSI: 367349860.

Date/timePositionNaut miles runAvg speedWind from/ knotsBaromVisibWave heightAir tempDewpointWater temp
2015-Aug-03 08:33N 38°32' W 074°41'8 7.9
2015-Aug-03 07:33N 38°25' W 074°45'10 9.9
2015-Aug-03 06:33N 38°15' W 074°50'1212.3
2015-Aug-03 05:33N 38°04' W 074°56'1110.5
2015-Aug-03 04:33N 37°54' W 075°01'9 9.4
2015-Aug-03 03:33N 37°46' W 075°06'10 9.0
2015-Aug-03 02:25N 37°36' W 075°11'  
2015-Jul-31 00:26N 27°00' W 079°58'910.6
2015-Jul-30 23:33N 26°51' W 079°58'1211.6
2015-Jul-30 22:33N 26°39' W 079°58'1414.3
2015-Jul-30 21:33N 26°25' W 079°58'1514.8
2015-Jul-30 20:33N 26°11' W 079°58'1514.5
2015-Jul-30 19:33N 25°56' W 080°01'1111.3
2015-Jul-30 18:33N 25°46' W 080°05'7 6.5
2015-Jul-30 17:33N 25°40' W 080°02'1110.8
2015-Jul-30 16:32N 25°29' W 080°02'  
2015-Jul-27 14:33N 29°57' W 090°02'6 0.2
2015-Jul-26 13:20N 29°55' W 090°08'4 4.3
2015-Jul-26 12:20N 29°57' W 090°03'4 4.7
2015-Jul-26 11:27N 29°56' W 089°59'  
Track history (hours):
 
Tides and Currents Weather Stations Pressure Air Temp Water Temp Dewpoint Dewpoint Depression Visibility Wind Speed Wind Dir Waves Ship Positions

Linda Moran

Owner: MORAN TOWING CORP., NEW CANAAN, CT. More information available from US FCC via Universal Licensing System and Coast Guard Vessel Documentation Center.

Last reported at 2015-Aug-03 08:33 UTC. Time now 2015-Aug-03 08:43 UTC.
Position N 38°32' W 074°41'.

Length 156 m; draft 8.2 m.

Type: Towing. MMSI: 367349860.

Date/timePositionNaut miles runAvg speedWind from/ knotsBaromVisibWave heightAir tempDewpointWater temp
2015-Aug-03 08:33N 38°32' W 074°41'8 7.9
2015-Aug-03 07:33N 38°25' W 074°45'10 9.9
2015-Aug-03 06:33N 38°15' W 074°50'1212.3
2015-Aug-03 05:33N 38°04' W 074°56'1110.5
2015-Aug-03 04:33N 37°54' W 075°01'9 9.4
2015-Aug-03 03:33N 37°46' W 075°06'10 9.0
2015-Aug-03 02:25N 37°36' W 075°11'  
2015-Jul-31 00:26N 27°00' W 079°58'910.6
2015-Jul-30 23:33N 26°51' W 079°58'1211.6
2015-Jul-30 22:33N 26°39' W 079°58'1414.3
2015-Jul-30 21:33N 26°25' W 079°58'1514.8
2015-Jul-30 20:33N 26°11' W 079°58'1514.5
2015-Jul-30 19:33N 25°56' W 080°01'1111.3
2015-Jul-30 18:33N 25°46' W 080°05'7 6.5
2015-Jul-30 17:33N 25°40' W 080°02'1110.8
2015-Jul-30 16:32N 25°29' W 080°02'  
2015-Jul-27 14:33N 29°57' W 090°02'6 0.2
2015-Jul-26 13:20N 29°55' W 090°08'4 4.3
2015-Jul-26 12:20N 29°57' W 090°03'4 4.7
2015-Jul-26 11:27N 29°56' W 089°59'  

Dump ship's entire track history